Time;durP1;ratioP1;P1;durP2;ratioP2;P2;SDS_P1;SDS_P2;PMS_P1;PMS_P2;Temp;Humidity;BMP_temperature;BMP_pressure;BME280_temperature;BME280_humidity;BME280_pressure;Samples;Min_cycle;Max_cycle;Signal;HPM_P1;HPM_P2
2021/05/06 00:32:19;;;;;;;;;;;;;;;21.80;47.39;100106.09;5037709;28;870;-48
2021/05/06 00:34:45;;;;;;;;;;;;;;;21.70;47.45;100098.94;5037685;28;711;-57
2021/05/06 00:37:13;;;;;;;;;;;;;;;21.45;48.06;100104.09;5037685;28;764;-56
2021/05/06 00:39:44;;;;;;;;;;;;;;;21.07;49.02;100099.13;5037248;28;1014;-66
2021/05/06 01:12:34;;;;;;;;;;;;;;;21.72;47.74;100079.25;5036583;28;827;-68
2021/05/06 01:15:00;;;;;;;;;;;;;;;21.53;48.06;100074.81;5035575;28;1100;-57
2021/05/06 01:17:25;;;;;;;;;;;;;;;21.70;47.78;100082.34;5036799;28;819;-56
2021/05/06 01:20:22;;;;;;;;;;;;;;;21.70;47.71;100074.84;5035759;28;1284;-57
2021/05/06 01:22:47;;;;;;;;;;;;;;;21.79;47.40;100090.63;5036963;28;763;-50
2021/05/06 01:25:14;;;;;;;;;;;;;;;22.01;46.98;100075.81;5035740;28;1154;-54
2021/05/06 01:33:01;;;;;;;;;;;;;;;20.90;49.54;100077.78;5036642;28;751;-52
2021/05/06 01:36:03;;;;;;;;;;;;;;;20.87;49.91;100083.13;5036914;28;811;-49
2021/05/06 01:43:44;;;;;;;;;;;;;;;21.60;47.90;100082.63;5035694;28;1166;-51
2021/05/06 01:49:12;;;;;;;;;;;;;;;21.55;47.91;100088.34;5036589;28;755;-51
2021/05/06 02:00:20;;;;;;;;;;;;;;;20.95;48.89;100071.28;4978783;28;618;-68
2021/05/06 02:02:50;;;;;;;;;;;;;;;20.84;49.45;100074.31;5023794;28;1078;-55
2021/05/06 02:05:21;;;;;;;;;;;;;;;21.16;49.32;100066.78;5035526;28;1161;-68
2021/05/06 02:07:47;;;;;;;;;;;;;;;21.25;48.75;100065.97;5036297;28;1906;-54
2021/05/06 02:10:16;;;;;;;;;;;;;;;21.04;49.21;100069.34;5035032;28;1347;-60
2021/05/06 02:12:42;;;;;;;;;;;;;;;20.96;49.65;100081.22;5036363;28;759;-69
2021/05/06 02:15:16;;;;;;;;;;;;;;;21.02;49.16;100074.38;5036173;28;768;-56
2021/05/06 02:17:43;;;;;;;;;;;;;;;21.08;49.07;100084.16;5036322;28;783;-50
2021/05/06 02:20:22;;;;;;;;;;;;;;;21.28;48.62;100081.91;5051381;28;1088;-52
2021/05/06 02:22:50;;;;;;;;;;;;;;;21.52;48.13;100076.78;5036107;28;900;-49
2021/05/06 02:25:15;;;;;;;;;;;;;;;21.43;48.20;100094.47;5037891;28;1021;-51
2021/05/06 02:27:41;;;;;;;;;;;;;;;21.46;48.20;100096.59;5054816;28;1988;-67
2021/05/06 02:30:06;;;;;;;;;;;;;;;21.63;47.68;100087.50;5040026;28;811;-57
2021/05/06 02:32:32;;;;;;;;;;;;;;;21.61;47.73;100089.81;5039994;28;748;-49
2021/05/06 02:34:57;;;;;;;;;;;;;;;21.56;47.84;100087.19;5039697;28;831;-51
2021/05/06 02:37:23;;;;;;;;;;;;;;;21.33;48.49;100093.63;5039908;28;792;-68
2021/05/06 02:39:48;;;;;;;;;;;;;;;21.03;48.80;100098.13;5038178;28;963;-51
2021/05/06 02:42:14;;;;;;;;;;;;;;;20.96;49.11;100089.50;5039599;28;859;-68
2021/05/06 02:44:40;;;;;;;;;;;;;;;20.88;49.59;100095.81;5039804;28;780;-68
2021/05/06 02:47:05;;;;;;;;;;;;;;;20.98;49.58;100095.50;5039628;28;1917;-53
2021/05/06 02:49:31;;;;;;;;;;;;;;;20.95;49.40;100090.63;5039307;28;835;-54
2021/05/06 02:52:05;;;;;;;;;;;;;;;21.00;49.46;100098.78;5039662;28;784;-51
2021/05/06 02:54:36;;;;;;;;;;;;;;;21.01;49.25;100105.91;5030288;28;1435;-64
2021/05/06 02:57:42;;;;;;;;;;;;;;;21.05;49.42;100101.38;5039321;28;780;-50
2021/05/06 03:02:53;;;;;;;;;;;;;;;21.19;48.80;100113.13;5039224;28;803;-66
2021/05/06 03:05:20;;;;;;;;;;;;;;;21.30;48.35;100126.66;5039914;28;798;-68
2021/05/06 03:07:57;;;;;;;;;;;;;;;21.27;48.60;100128.13;5039321;28;1918;-67
2021/05/06 03:10:42;;;;;;;;;;;;;;;21.43;48.35;100145.06;5038808;28;955;-67
2021/05/06 03:13:23;;;;;;;;;;;;;;;21.53;48.10;100160.56;5039276;28;855;-65
2021/05/06 03:21:35;;;;;;;;;;;;;;;21.77;47.44;100148.25;5038972;28;1201;-66
2021/05/06 03:24:04;;;;;;;;;;;;;;;21.27;48.74;100158.53;5038665;28;1010;-68
2021/05/06 03:26:32;;;;;;;;;;;;;;;21.18;48.86;100175.09;5039152;28;1906;-54
2021/05/06 03:29:04;;;;;;;;;;;;;;;21.28;48.55;100181.47;5038861;28;759;-50
2021/05/06 03:46:17;;;;;;;;;;;;;;;21.65;47.79;100185.66;5038442;28;799;-65
2021/05/06 04:18:35;;;;;;;;;;;;;;;21.44;48.04;100228.88;5036877;28;1361;-60
2021/05/06 04:27:13;;;;;;;;;;;;;;;21.83;47.27;100230.78;5036458;28;1953;-66
2021/05/06 04:37:51;;;;;;;;;;;;;;;21.01;49.22;100241.34;5037941;28;756;-64
2021/05/06 05:04:57;;;;;;;;;;;;;;;21.65;47.59;100262.34;5037195;28;783;-61
2021/05/06 05:07:45;;;;;;;;;;;;;;;21.82;47.36;100262.38;5037414;28;1984;-63
2021/05/06 05:13:03;;;;;;;;;;;;;;;21.24;48.67;100263.41;5037161;28;819;-61
2021/05/06 05:18:57;;;;;;;;;;;;;;;21.07;49.29;100261.38;5036828;28;602;-63
2021/05/06 05:24:13;;;;;;;;;;;;;;;21.24;48.93;100257.88;5036750;28;1021;-58
2021/05/06 05:26:38;;;;;;;;;;;;;;;21.57;47.84;100268.66;5036811;28;1981;-60
2021/05/06 05:29:04;;;;;;;;;;;;;;;21.64;47.54;100264.28;5036684;28;747;-60
2021/05/06 05:31:29;;;;;;;;;;;;;;;21.36;48.36;100272.78;5036824;28;1057;-62
2021/05/06 05:34:03;;;;;;;;;;;;;;;21.37;48.32;100271.63;5036777;28;803;-63
2021/05/06 05:36:30;;;;;;;;;;;;;;;21.18;48.73;100265.50;5036935;28;871;-57
2021/05/06 05:39:19;;;;;;;;;;;;;;;21.18;48.97;100271.03;5036521;28;982;-60
2021/05/06 05:55:36;;;;;;;;;;;;;;;21.59;48.08;100277.44;5036378;28;838;-61
2021/05/06 05:58:02;;;;;;;;;;;;;;;21.68;47.49;100279.09;5036276;28;867;-60
2021/05/06 06:00:27;;;;;;;;;;;;;;;21.74;47.39;100292.78;5038829;28;756;-62
2021/05/06 06:02:52;;;;;;;;;;;;;;;21.32;48.37;100282.00;5040614;28;815;-62
2021/05/06 06:05:18;;;;;;;;;;;;;;;21.08;49.33;100288.69;5040443;28;800;-63
2021/05/06 06:07:44;;;;;;;;;;;;;;;21.17;49.11;100289.59;5040237;28;1910;-65
2021/05/06 06:10:09;;;;;;;;;;;;;;;21.40;48.25;100289.53;5040596;28;962;-61
2021/05/06 06:12:35;;;;;;;;;;;;;;;21.57;47.89;100288.00;5040520;28;706;-61
2021/05/06 06:15:03;;;;;;;;;;;;;;;21.76;47.33;100302.41;5040257;28;768;-61
2021/05/06 06:17:33;;;;;;;;;;;;;;;21.91;47.05;100292.03;5055367;28;768;-59
2021/05/06 06:20:00;;;;;;;;;;;;;;;22.03;46.72;100295.81;5040501;28;1057;-60
2021/05/06 06:22:27;;;;;;;;;;;;;;;21.94;46.85;100296.94;5040037;28;866;-59
2021/05/06 06:24:52;;;;;;;;;;;;;;;21.87;47.32;100297.41;5037556;28;1014;-59
2021/05/06 06:27:19;;;;;;;;;;;;;;;21.39;48.26;100298.94;5039763;28;1967;-60
2021/05/06 06:29:45;;;;;;;;;;;;;;;21.29;48.79;100297.28;5039801;28;796;-63
2021/05/06 06:32:14;;;;;;;;;;;;;;;21.14;49.21;100293.00;5039997;28;748;-54
2021/05/06 06:34:39;;;;;;;;;;;;;;;21.52;48.15;100292.53;5039764;28;815;-57
2021/05/06 06:37:05;;;;;;;;;;;;;;;21.69;47.57;100302.88;5039840;28;803;-62
2021/05/06 06:39:31;;;;;;;;;;;;;;;21.70;47.60;100303.69;5039772;28;959;-65
2021/05/06 06:41:56;;;;;;;;;;;;;;;21.84;47.34;100298.84;5039462;28;781;-60
2021/05/06 06:44:30;;;;;;;;;;;;;;;22.08;46.70;100302.31;5039770;28;753;-64
2021/05/06 06:47:02;;;;;;;;;;;;;;;22.03;46.81;100300.53;5039390;28;1969;-63
2021/05/06 06:49:29;;;;;;;;;;;;;;;21.62;47.98;100296.97;5040015;28;731;-61
2021/05/06 06:51:54;;;;;;;;;;;;;;;21.25;48.73;100293.53;5038422;28;724;-60
2021/05/06 06:54:19;;;;;;;;;;;;;;;21.20;49.00;100297.25;5039164;28;1014;-61
2021/05/06 06:56:45;;;;;;;;;;;;;;;21.83;47.50;100297.22;5039369;28;760;-64
2021/05/06 06:59:10;;;;;;;;;;;;;;;21.97;46.93;100297.09;5039687;28;811;-58
2021/05/06 07:01:38;;;;;;;;;;;;;;;22.14;46.59;100304.63;5039334;28;843;-64
2021/05/06 07:04:03;;;;;;;;;;;;;;;21.91;47.23;100294.78;5039624;28;822;-63
2021/05/06 07:06:29;;;;;;;;;;;;;;;21.68;47.91;100301.22;5021591;28;1913;-59
2021/05/06 07:08:54;;;;;;;;;;;;;;;21.34;48.01;100302.69;5038783;28;946;-51
2021/05/06 07:11:19;;;;;;;;;;;;;;;21.44;48.65;100301.59;5039038;28;744;-61
2021/05/06 07:13:45;;;;;;;;;;;;;;;21.93;47.25;100303.59;5039491;28;787;-63
2021/05/06 07:16:12;;;;;;;;;;;;;;;22.23;46.60;100310.16;5021555;28;1104;-60
2021/05/06 07:18:38;;;;;;;;;;;;;;;21.83;47.50;100302.75;5039105;28;760;-60
2021/05/06 07:21:18;;;;;;;;;;;;;;;22.02;47.04;100299.72;5039382;28;1052;-56
2021/05/06 07:23:44;;;;;;;;;;;;;;;21.66;46.60;100317.34;5038418;28;935;-61
2021/05/06 07:26:09;;;;;;;;;;;;;;;21.57;47.17;100316.47;5039004;28;740;-62
2021/05/06 07:28:36;;;;;;;;;;;;;;;21.86;47.64;100318.72;5038647;28;1969;-61
2021/05/06 07:31:02;;;;;;;;;;;;;;;22.07;47.08;100312.59;5038669;28;827;-64
2021/05/06 07:33:28;;;;;;;;;;;;;;;21.84;47.75;100321.00;5038882;28;839;-59
2021/05/06 07:35:54;;;;;;;;;;;;;;;21.80;47.60;100331.06;5038826;28;783;-59
2021/05/06 07:38:19;;;;;;;;;;;;;;;21.60;47.43;100315.88;5038222;28;1052;-62
2021/05/06 07:40:45;;;;;;;;;;;;;;;21.64;48.11;100322.41;5038572;28;771;-63
2021/05/06 07:43:10;;;;;;;;;;;;;;;21.85;47.55;100316.25;5039166;28;855;-64
2021/05/06 07:45:36;;;;;;;;;;;;;;;22.21;46.73;100324.34;5038473;28;823;-63
2021/05/06 07:48:01;;;;;;;;;;;;;;;21.96;47.09;100314.03;5038380;28;1981;-61
2021/05/06 07:50:27;;;;;;;;;;;;;;;21.94;47.13;100325.41;5038438;28;780;-61
2021/05/06 07:52:55;;;;;;;;;;;;;;;21.22;47.95;100327.34;5038271;28;807;-57
2021/05/06 07:55:20;;;;;;;;;;;;;;;21.78;47.67;100318.69;5038172;28;946;-64
2021/05/06 07:57:46;;;;;;;;;;;;;;;22.22;46.66;100320.44;5038171;28;827;-62
2021/05/06 08:00:13;;;;;;;;;;;;;;;22.04;46.91;100318.78;5038178;28;767;-63
2021/05/06 08:02:39;;;;;;;;;;;;;;;21.99;47.10;100324.44;5038732;28;885;-63
2021/05/06 08:05:05;;;;;;;;;;;;;;;21.77;47.04;100326.19;5038066;28;823;-56
2021/05/06 08:07:31;;;;;;;;;;;;;;;21.60;47.25;100323.34;5038034;28;1905;-64
2021/05/06 08:09:56;;;;;;;;;;;;;;;22.00;47.27;100334.41;5038005;28;955;-59
2021/05/06 08:12:23;;;;;;;;;;;;;;;22.31;46.47;100333.47;5037781;28;752;-60
2021/05/06 08:14:49;;;;;;;;;;;;;;;21.90;47.26;100329.97;5038284;28;868;-59
2021/05/06 08:17:15;;;;;;;;;;;;;;;21.83;47.41;100330.44;5038095;28;759;-64
2021/05/06 08:19:41;;;;;;;;;;;;;;;21.83;46.15;100330.44;5037550;28;1008;-51
2021/05/06 08:22:15;;;;;;;;;;;;;;;21.65;47.04;100339.81;5037250;28;915;-52
2021/05/06 08:24:41;;;;;;;;;;;;;;;21.91;47.39;100337.16;5037436;28;1022;-53
2021/05/06 08:27:06;;;;;;;;;;;;;;;22.11;46.86;100340.47;5037550;28;2095;-57
2021/05/06 08:29:32;;;;;;;;;;;;;;;22.15;46.84;100336.72;5038155;28;735;-52
2021/05/06 08:31:57;;;;;;;;;;;;;;;21.95;47.34;100342.84;5037591;28;795;-56
2021/05/06 08:34:23;;;;;;;;;;;;;;;21.92;46.98;100343.47;5037323;28;756;-65
2021/05/06 08:36:48;;;;;;;;;;;;;;;21.81;46.25;100329.94;5037655;28;1201;-56
2021/05/06 08:39:14;;;;;;;;;;;;;;;21.60;48.14;100342.69;5023882;28;1164;-53
2021/05/06 08:41:40;;;;;;;;;;;;;;;21.86;47.70;100342.81;5036984;28;764;-62
2021/05/06 08:44:06;;;;;;;;;;;;;;;22.36;46.22;100350.00;5037983;28;770;-51
2021/05/06 08:46:36;;;;;;;;;;;;;;;22.01;47.13;100347.09;5037276;28;1906;-63
2021/05/06 08:49:02;;;;;;;;;;;;;;;21.95;47.19;100353.91;5037028;28;814;-62
2021/05/06 08:51:49;;;;;;;;;;;;;;;21.70;47.47;100348.78;5037430;28;739;-59
2021/05/06 08:54:42;;;;;;;;;;;;;;;21.50;48.13;100361.19;5036957;28;935;-63
2021/05/06 08:57:07;;;;;;;;;;;;;;;21.50;48.45;100372.25;5037569;28;756;-62
2021/05/06 08:59:33;;;;;;;;;;;;;;;21.81;47.51;100377.00;5037518;28;791;-58
2021/05/06 09:01:58;;;;;;;;;;;;;;;21.98;47.26;100353.25;5036760;28;792;-55
2021/05/06 09:04:26;;;;;;;;;;;;;;;21.68;47.68;100356.56;5037104;28;815;-60
2021/05/06 09:06:52;;;;;;;;;;;;;;;21.74;47.79;100368.34;5036987;28;1909;-62
2021/05/06 09:09:18;;;;;;;;;;;;;;;21.53;47.81;100360.59;5036817;28;951;-51
2021/05/06 09:11:44;;;;;;;;;;;;;;;21.37;47.68;100373.94;5037001;28;803;-49
2021/05/06 09:14:10;;;;;;;;;;;;;;;21.67;48.18;100373.50;5036927;28;795;-66
2021/05/06 09:16:39;;;;;;;;;;;;;;;22.21;46.60;100368.66;5036674;28;702;-66
2021/05/06 09:19:04;;;;;;;;;;;;;;;22.51;45.64;100371.69;5037413;28;862;-52
2021/05/06 09:21:30;;;;;;;;;;;;;;;22.43;46.07;100369.72;5036583;28;1293;-49
2021/05/06 09:24:24;;;;;;;;;;;;;;;22.13;46.77;100369.47;5036250;28;990;-47
2021/05/06 09:27:00;;;;;;;;;;;;;;;21.78;46.80;100369.31;5036648;28;1968;-52
2021/05/06 09:29:28;;;;;;;;;;;;;;;21.26;47.57;100369.00;5036734;28;815;-62
2021/05/06 09:31:54;;;;;;;;;;;;;;;21.43;48.65;100377.41;5036725;28;748;-63
2021/05/06 09:34:19;;;;;;;;;;;;;;;21.71;47.69;100366.19;5051058;28;1255;-53
2021/05/06 09:36:45;;;;;;;;;;;;;;;21.52;48.19;100367.25;5036603;28;810;-58
2021/05/06 09:39:10;;;;;;;;;;;;;;;21.61;48.02;100363.72;5036197;28;951;-62
2021/05/06 09:41:36;;;;;;;;;;;;;;;21.58;48.03;100362.38;5036806;28;721;-59
2021/05/06 09:44:12;;;;;;;;;;;;;;;21.52;48.21;100353.41;5036452;28;827;-62
2021/05/06 09:46:41;;;;;;;;;;;;;;;21.45;48.12;100350.25;5036424;28;1975;-60
2021/05/06 09:49:07;;;;;;;;;;;;;;;21.47;48.28;100359.03;5036194;28;795;-59
2021/05/06 09:54:59;;;;;;;;;;;;;;;21.49;48.18;100354.03;5036060;28;959;-59
2021/05/06 09:57:29;;;;;;;;;;;;;;;21.73;47.71;100357.56;5036007;28;832;-62
2021/05/06 10:00:13;;;;;;;;;;;;;;;21.50;48.13;100350.13;5035356;28;1262;-57
2021/05/06 10:02:39;;;;;;;;;;;;;;;21.45;48.22;100353.03;5036029;28;811;-57
2021/05/06 10:05:08;;;;;;;;;;;;;;;21.67;47.59;100354.97;5036444;28;796;-62
2021/05/06 10:07:34;;;;;;;;;;;;;;;21.53;47.97;100343.97;5036490;28;1910;-62
2021/05/06 10:10:06;;;;;;;;;;;;;;;21.61;47.67;100358.19;5035964;28;1022;-61
2021/05/06 10:12:32;;;;;;;;;;;;;;;21.52;47.82;100358.94;5036588;28;776;-63
2021/05/06 10:14:58;;;;;;;;;;;;;;;21.58;47.93;100373.44;5036414;28;784;-63
2021/05/06 10:17:24;;;;;;;;;;;;;;;21.41;48.05;100365.84;5036053;28;771;-60
2021/05/06 10:19:50;;;;;;;;;;;;;;;21.62;47.66;100363.38;5036147;28;1045;-59
2021/05/06 10:22:16;;;;;;;;;;;;;;;21.53;47.84;100366.13;5036117;28;763;-62
2021/05/06 10:24:42;;;;;;;;;;;;;;;21.57;47.61;100366.28;5035690;28;966;-62
2021/05/06 10:27:11;;;;;;;;;;;;;;;21.61;47.73;100360.94;5036408;28;1942;-60
2021/05/06 10:29:36;;;;;;;;;;;;;;;21.51;48.07;100332.38;5036226;28;838;-59
2021/05/06 10:32:02;;;;;;;;;;;;;;;21.56;47.88;100356.38;5034999;28;1217;-64
2021/05/06 10:34:28;;;;;;;;;;;;;;;21.62;47.54;100363.38;5036077;28;835;-60
2021/05/06 10:36:53;;;;;;;;;;;;;;;21.79;47.18;100354.34;5051777;28;767;-60
2021/05/06 10:39:19;;;;;;;;;;;;;;;21.80;46.93;100353.22;5034781;28;1102;-60
2021/05/06 10:41:44;;;;;;;;;;;;;;;21.85;46.77;100355.84;5036124;28;802;-63
2021/05/06 10:44:10;;;;;;;;;;;;;;;21.84;46.83;100362.50;5035751;28;791;-60
2021/05/06 10:46:58;;;;;;;;;;;;;;;21.41;47.96;100363.09;5038283;28;1969;-61
2021/05/06 10:49:24;;;;;;;;;;;;;;;21.73;47.19;100369.47;5040133;28;836;-64
2021/05/06 10:55:46;;;;;;;;;;;;;;;21.27;48.17;100370.66;5039327;28;1005;-59
2021/05/06 10:58:25;;;;;;;;;;;;;;;21.12;48.36;100367.13;5039218;28;771;-63
2021/05/06 11:01:08;;;;;;;;;;;;;;;21.00;48.85;100375.19;5039464;28;851;-59
2021/05/06 11:03:34;;;;;;;;;;;;;;;21.55;47.60;100389.88;5039463;28;768;-59
2021/05/06 11:05:59;;;;;;;;;;;;;;;22.12;46.00;100384.44;5054484;28;1201;-58
2021/05/06 11:08:28;;;;;;;;;;;;;;;21.96;46.24;100374.94;5038838;28;1979;-57
2021/05/06 11:10:57;;;;;;;;;;;;;;;22.02;46.30;100376.41;5039513;28;835;-54
2021/05/06 11:13:23;;;;;;;;;;;;;;;21.78;46.33;100383.16;5039058;28;1044;-64
2021/05/06 11:15:48;;;;;;;;;;;;;;;21.39;46.25;100381.94;5039153;28;819;-56
2021/05/06 11:18:33;;;;;;;;;;;;;;;21.93;46.62;100373.59;5038282;28;1114;-63
2021/05/06 11:20:58;;;;;;;;;;;;;;;22.32;45.29;100373.91;5038840;28;1172;-53
2021/05/06 11:23:25;;;;;;;;;;;;;;;22.03;46.04;100389.94;5054470;28;986;-60
2021/05/06 11:26:01;;;;;;;;;;;;;;;22.23;45.74;100379.41;5039152;28;802;-63
2021/05/06 11:28:29;;;;;;;;;;;;;;;21.29;46.11;100382.19;5053735;28;1910;-54
2021/05/06 11:30:55;;;;;;;;;;;;;;;21.46;47.62;100378.72;5038808;28;783;-58
2021/05/06 11:33:25;;;;;;;;;;;;;;;21.44;47.71;100378.22;5038988;28;776;-56
2021/05/06 11:36:07;;;;;;;;;;;;;;;21.92;46.56;100388.59;5039354;28;959;-63
2021/05/06 11:38:36;;;;;;;;;;;;;;;22.09;46.02;100385.09;5038516;28;958;-60
2021/05/06 11:41:08;;;;;;;;;;;;;;;21.88;46.55;100382.06;5038506;28;763;-56
2021/05/06 11:43:34;;;;;;;;;;;;;;;21.86;46.55;100384.34;5038773;28;763;-55
2021/05/06 11:46:03;;;;;;;;;;;;;;;21.62;46.47;100390.25;5038794;28;843;-56
2021/05/06 11:48:35;;;;;;;;;;;;;;;21.62;46.28;100387.47;5038569;28;1971;-54
2021/05/06 11:51:01;;;;;;;;;;;;;;;21.82;46.55;100381.38;5038527;28;768;-56
2021/05/06 11:53:26;;;;;;;;;;;;;;;22.26;45.55;100386.25;5037957;28;954;-52
2021/05/06 11:55:51;;;;;;;;;;;;;;;22.14;45.55;100401.53;5038399;28;792;-51
2021/05/06 11:58:23;;;;;;;;;;;;;;;22.16;45.55;100393.75;5037376;28;808;-50
2021/05/06 12:00:51;;;;;;;;;;;;;;;21.74;46.44;100396.00;5038074;28;716;-58
2021/05/06 12:03:16;;;;;;;;;;;;;;;21.02;46.24;100395.81;5038300;28;771;-58
2021/05/06 12:05:57;;;;;;;;;;;;;;;21.47;47.54;100395.00;5038213;28;748;-63
2021/05/06 12:08:26;;;;;;;;;;;;;;;21.67;47.09;100395.63;5037834;28;1902;-64
2021/05/06 12:10:55;;;;;;;;;;;;;;;22.24;45.61;100400.44;5038257;28;760;-58
2021/05/06 12:13:24;;;;;;;;;;;;;;;21.85;46.27;100404.84;5038058;28;792;-63
2021/05/06 12:15:49;;;;;;;;;;;;;;;21.90;46.09;100396.41;5038243;28;835;-59
2021/05/06 12:18:15;;;;;;;;;;;;;;;21.83;46.15;100396.84;5037961;28;803;-65
2021/05/06 12:20:56;;;;;;;;;;;;;;;21.40;45.89;100397.41;5037565;28;1226;-59
2021/05/06 12:23:23;;;;;;;;;;;;;;;21.88;46.22;100390.34;5037601;28;947;-62
2021/05/06 12:25:49;;;;;;;;;;;;;;;22.22;45.43;100408.25;5038130;28;744;-59
2021/05/06 12:28:14;;;;;;;;;;;;;;;21.73;46.51;100399.91;5037769;28;1981;-54
2021/05/06 12:30:40;;;;;;;;;;;;;;;21.81;46.38;100396.38;5037942;28;925;-64
2021/05/06 12:33:05;;;;;;;;;;;;;;;21.62;46.58;100401.31;5036855;28;1229;-63
2021/05/06 12:35:33;;;;;;;;;;;;;;;21.45;46.96;100397.28;5037498;28;748;-55
2021/05/06 12:37:58;;;;;;;;;;;;;;;21.80;46.46;100400.25;5035734;28;1370;-56
2021/05/06 12:40:25;;;;;;;;;;;;;;;22.13;45.56;100405.47;5052850;28;1029;-64
2021/05/06 12:42:51;;;;;;;;;;;;;;;21.93;46.23;100394.94;5037280;28;816;-60
2021/05/06 12:45:16;;;;;;;;;;;;;;;21.91;46.05;100403.56;5037580;28;720;-59
2021/05/06 12:47:45;;;;;;;;;;;;;;;21.52;46.80;100397.66;5037363;28;1919;-64
2021/05/06 12:50:11;;;;;;;;;;;;;;;21.49;46.62;100408.50;5037196;28;819;-60
2021/05/06 12:53:18;;;;;;;;;;;;;;;21.84;46.49;100404.03;5037310;28;780;-55
2021/05/06 12:55:45;;;;;;;;;;;;;;;22.30;45.36;100414.94;5037206;28;841;-60
2021/05/06 12:58:32;;;;;;;;;;;;;;;21.83;46.38;100409.88;5037068;28;808;-59
2021/05/06 13:00:58;;;;;;;;;;;;;;;21.93;46.05;100414.31;5037142;28;744;-65
2021/05/06 13:03:28;;;;;;;;;;;;;;;21.80;46.04;100402.22;5037221;28;744;-66
2021/05/06 13:05:53;;;;;;;;;;;;;;;21.60;46.88;100420.16;5052587;28;871;-65
2021/05/06 13:08:21;;;;;;;;;;;;;;;21.78;46.48;100421.09;5036505;28;2053;-62
2021/05/06 13:10:47;;;;;;;;;;;;;;;22.06;46.00;100421.69;5052019;28;1267;-60
2021/05/06 13:13:31;;;;;;;;;;;;;;;22.13;45.42;100421.25;5036997;28;807;-60
2021/05/06 13:15:56;;;;;;;;;;;;;;;21.99;46.00;100418.56;5036892;28;815;-61
2021/05/06 13:18:22;;;;;;;;;;;;;;;21.90;46.05;100418.53;5036742;28;775;-60
2021/05/06 13:20:47;;;;;;;;;;;;;;;21.63;45.92;100422.28;5036927;28;1179;-60
2021/05/06 13:23:23;;;;;;;;;;;;;;;21.78;46.48;100421.09;5036494;28;986;-63
2021/05/06 13:25:49;;;;;;;;;;;;;;;22.08;45.59;100424.13;5036979;28;804;-62
2021/05/06 13:28:18;;;;;;;;;;;;;;;22.23;45.41;100418.16;5051682;28;1977;-63
2021/05/06 13:30:44;;;;;;;;;;;;;;;22.04;45.80;100429.53;5036656;28;744;-58
2021/05/06 13:33:20;;;;;;;;;;;;;;;21.92;46.10;100426.53;5036712;28;795;-63
2021/05/06 13:36:05;;;;;;;;;;;;;;;21.46;46.72;100426.59;5036700;28;820;-54
2021/05/06 13:38:46;;;;;;;;;;;;;;;21.50;47.12;100433.13;5036310;28;982;-62
2021/05/06 13:41:12;;;;;;;;;;;;;;;22.12;45.49;100441.75;5036867;28;776;-61
2021/05/06 13:43:37;;;;;;;;;;;;;;;22.17;45.50;100436.88;5036593;28;772;-59
2021/05/06 13:46:03;;;;;;;;;;;;;;;21.69;46.67;100432.13;5036386;28;828;-60
2021/05/06 13:48:28;;;;;;;;;;;;;;;21.95;45.86;100439.72;5036381;28;1977;-55
2021/05/06 13:50:53;;;;;;;;;;;;;;;21.60;46.44;100420.16;5036463;28;820;-61
2021/05/06 13:53:19;;;;;;;;;;;;;;;21.38;46.96;100402.44;5036210;28;1025;-61
2021/05/06 13:58:54;;;;;;;;;;;;;;;22.32;44.94;100423.75;5036089;28;782;-60
2021/05/06 14:01:20;;;;;;;;;;;;;;;21.83;45.98;100424.53;5036394;28;728;-60
2021/05/06 14:03:45;;;;;;;;;;;;;;;21.85;46.04;100425.03;5036304;28;867;-60
2021/05/06 14:06:11;;;;;;;;;;;;;;;21.60;46.38;100417.41;5036538;28;774;-61
2021/05/06 14:08:36;;;;;;;;;;;;;;;21.36;46.71;100421.28;5035827;28;1905;-60
2021/05/06 14:11:02;;;;;;;;;;;;;;;21.82;46.16;100422.88;5036073;28;851;-63
2021/05/06 14:13:28;;;;;;;;;;;;;;;22.16;45.34;100420.59;5036551;28;765;-61
2021/05/06 14:15:53;;;;;;;;;;;;;;;21.87;45.62;100419.19;5036259;28;780;-60
2021/05/06 14:18:18;;;;;;;;;;;;;;;21.81;45.98;100426.81;5034814;28;780;-55
2021/05/06 14:20:44;;;;;;;;;;;;;;;21.47;46.40;100436.50;5037233;28;1168;-59
2021/05/06 14:23:10;;;;;;;;;;;;;;;21.33;47.26;100432.97;5040787;28;951;-59
2021/05/06 14:25:36;;;;;;;;;;;;;;;21.80;45.86;100443.75;5039860;28;831;-58
2021/05/06 14:28:01;;;;;;;;;;;;;;;21.94;45.71;100430.63;5039940;28;1910;-60
2021/05/06 14:30:27;;;;;;;;;;;;;;;21.73;46.09;100432.28;5040377;28;972;-62
2021/05/06 14:32:52;;;;;;;;;;;;;;;21.71;46.26;100438.13;5039738;28;760;-55
2021/05/06 14:35:18;;;;;;;;;;;;;;;21.59;46.46;100441.50;5039955;28;752;-59
2021/05/06 14:37:43;;;;;;;;;;;;;;;21.38;46.88;100441.16;5055458;28;779;-60
2021/05/06 14:40:10;;;;;;;;;;;;;;;21.78;45.96;100448.75;5039824;28;1156;-57
2021/05/06 14:42:35;;;;;;;;;;;;;;;22.18;45.08;100448.81;5039844;28;899;-61
2021/05/06 14:45:01;;;;;;;;;;;;;;;22.11;45.15;100459.53;5039606;28;763;-61
2021/05/06 14:47:26;;;;;;;;;;;;;;;21.75;46.21;100444.66;5039551;28;1905;-61
2021/05/06 14:49:52;;;;;;;;;;;;;;;21.76;45.95;100451.84;5039756;28;736;-60
2021/05/06 14:55:40;;;;;;;;;;;;;;;21.87;45.89;100457.94;5039509;28;811;-60
2021/05/06 14:58:05;;;;;;;;;;;;;;;22.04;45.26;100463.53;5054734;28;823;-61
2021/05/06 15:00:31;;;;;;;;;;;;;;;21.83;45.98;100457.75;5039360;28;764;-61
2021/05/06 15:02:59;;;;;;;;;;;;;;;21.84;45.95;100462.16;5039573;28;776;-59
2021/05/06 15:05:25;;;;;;;;;;;;;;;21.30;47.06;100453.78;5039456;28;841;-59
2021/05/06 15:07:50;;;;;;;;;;;;;;;21.40;47.01;100461.00;5039243;28;1905;-59
2021/05/06 15:10:16;;;;;;;;;;;;;;;21.91;45.84;100453.41;5039048;28;1022;-56
2021/05/06 15:12:48;;;;;;;;;;;;;;;22.07;45.23;100450.22;5038971;28;835;-60
2021/05/06 15:15:13;;;;;;;;;;;;;;;21.97;45.39;100459.63;5038189;28;1093;-64
2021/05/06 15:21:01;;;;;;;;;;;;;;;21.29;46.46;100459.63;5047900;28;1207;-60
2021/05/06 15:23:26;;;;;;;;;;;;;;;21.66;46.32;100457.66;5038726;28;946;-61
2021/05/06 15:25:52;;;;;;;;;;;;;;;21.96;45.33;100467.09;5038794;28;779;-60
2021/05/06 15:28:17;;;;;;;;;;;;;;;22.07;45.21;100469.59;5039139;28;1910;-62
2021/05/06 15:30:44;;;;;;;;;;;;;;;21.81;45.87;100464.72;5038878;28;836;-61
2021/05/06 15:33:09;;;;;;;;;;;;;;;21.73;45.77;100460.78;5038654;28;868;-62
2021/05/06 15:35:35;;;;;;;;;;;;;;;21.50;45.78;100471.00;5038868;28;812;-58
2021/05/06 15:38:00;;;;;;;;;;;;;;;21.76;45.82;100454.63;5039033;28;803;-59
2021/05/06 15:40:26;;;;;;;;;;;;;;;22.10;45.10;100471.72;5038407;28;951;-59
2021/05/06 15:42:53;;;;;;;;;;;;;;;21.88;45.43;100465.91;5038904;28;795;-59
2021/05/06 15:45:19;;;;;;;;;;;;;;;21.67;46.11;100471.19;5038732;28;768;-61
2021/05/06 15:47:44;;;;;;;;;;;;;;;21.69;45.97;100476.38;5038374;28;1973;-57
2021/05/06 15:50:10;;;;;;;;;;;;;;;21.44;46.40;100472.28;5038981;28;796;-60
2021/05/06 15:55:58;;;;;;;;;;;;;;;22.11;45.08;100474.16;5038599;28;650;-60
2021/05/06 15:58:37;;;;;;;;;;;;;;;21.97;44.91;100482.56;5035848;28;825;-64
2021/05/06 16:01:02;;;;;;;;;;;;;;;21.75;45.47;100483.41;5038559;28;810;-60
2021/05/06 16:03:31;;;;;;;;;;;;;;;21.59;45.78;100487.69;5038378;28;859;-60
2021/05/06 16:05:57;;;;;;;;;;;;;;;21.72;45.63;100488.78;5038298;28;752;-59
2021/05/06 16:08:23;;;;;;;;;;;;;;;22.09;44.74;100497.78;5036680;28;1989;-65
2021/05/06 16:10:50;;;;;;;;;;;;;;;22.01;44.77;100502.16;5037096;28;835;-64
2021/05/06 16:13:16;;;;;;;;;;;;;;;21.81;45.55;100515.38;5037950;28;869;-62
2021/05/06 16:15:41;;;;;;;;;;;;;;;21.69;45.71;100498.53;5038336;28;743;-61
2021/05/06 16:18:07;;;;;;;;;;;;;;;21.36;45.92;100520.84;5036911;28;870;-60
2021/05/06 16:20:39;;;;;;;;;;;;;;;21.64;45.76;100531.84;5037554;28;1301;-64
2021/05/06 16:23:11;;;;;;;;;;;;;;;21.80;45.40;100521.22;5037880;28;851;-56
2021/05/06 16:25:37;;;;;;;;;;;;;;;21.90;44.52;100536.75;5018376;28;772;-58
2021/05/06 16:28:03;;;;;;;;;;;;;;;21.58;45.67;100524.81;5032540;28;1910;-58
2021/05/06 16:30:28;;;;;;;;;;;;;;;21.59;45.86;100521.72;5038225;28;760;-56
2021/05/06 16:32:55;;;;;;;;;;;;;;;21.19;46.66;100519.56;5037920;28;764;-60
2021/05/06 16:35:24;;;;;;;;;;;;;;;21.72;45.34;100522.78;5037593;28;792;-56
2021/05/06 16:38:06;;;;;;;;;;;;;;;21.95;44.98;100525.53;5036688;28;1264;-52